Time;durP1;ratioP1;P1;durP2;ratioP2;P2;SDS_P1;SDS_P2;PMS_P1;PMS_P2;Temp;Humidity;BMP_temperature;BMP_pressure;BME280_temperature;BME280_humidity;BME280_pressure;Samples;Min_cycle;Max_cycle;Signal;HPM_P1;HPM_P2
2023/01/09 00:02:30;;;;;;;21.60;8.70;;;;;;;-15.05;50.08;101639.47;4829385;29;20054;-78
2023/01/09 00:05:16;;;;;;;21.83;7.57;;;;;;;-14.79;50.72;101690.81;4828603;29;20077;-77
2023/01/09 00:07:49;;;;;;;20.60;8.97;;;;;;;-14.70;52.13;101692.84;4815369;29;20110;-76
2023/01/09 00:10:16;;;;;;;23.73;9.07;;;;;;;-14.56;51.74;101713.63;4827974;29;20632;-79
2023/01/09 00:12:47;;;;;;;29.33;10.07;;;;;;;-14.69;51.02;101696.25;4826555;29;20070;-80
2023/01/09 00:15:18;;;;;;;24.77;9.55;;;;;;;-14.71;50.99;101687.66;4817178;29;20109;-80
2023/01/09 00:17:56;;;;;;;21.00;9.20;;;;;;;-14.71;51.79;101711.06;4811140;29;20063;-78
2023/01/09 00:20:25;;;;;;;23.43;9.00;;;;;;;-14.84;51.28;101705.28;4816044;29;20058;-80
2023/01/09 00:22:53;;;;;;;25.10;10.43;;;;;;;-15.05;50.91;101656.03;4829117;29;20140;-80
2023/01/09 00:25:31;;;;;;;20.17;8.27;;;;;;;-15.02;52.01;101653.91;4828973;29;20043;-80
2023/01/09 00:28:31;;;;;;;20.73;8.97;;;;;;;-14.98;50.50;101711.06;4823573;29;20058;-79
2023/01/09 00:34:38;;;;;;;22.73;6.87;;;;;;;-15.83;50.33;101693.06;4814844;29;20070;-79
2023/01/09 00:37:13;;;;;;;20.40;8.30;;;;;;;-15.60;52.54;101711.81;4814565;29;20058;-79
2023/01/09 00:40:17;;;;;;;19.37;7.80;;;;;;;-15.50;51.05;101718.88;4800026;29;20042;-79
2023/01/09 00:44:05;;;;;;;21.27;8.03;;;;;;;-15.58;52.08;101724.50;4813679;29;20092;-81
2023/01/09 00:46:43;;;;;;;14.93;6.20;;;;;;;-15.85;51.03;101720.31;4828677;29;20026;-79
2023/01/09 00:49:31;;;;;;;18.43;7.37;;;;;;;-16.01;51.28;101729.09;4799423;29;20060;-79
2023/01/09 00:52:37;;;;;;;14.07;6.20;;;;;;;-16.30;50.87;101723.78;4818455;29;20058;-79
2023/01/09 00:56:04;;;;;;;10.93;5.50;;;;;;;-16.69;51.27;101667.38;4828815;29;20066;-78
2023/01/09 00:58:38;;;;;;;14.07;6.17;;;;;;;-16.92;50.73;101643.59;4809766;29;20628;-80
2023/01/09 01:01:21;;;;;;;14.60;5.07;;;;;;;-16.64;51.93;101731.84;4827732;29;20046;-80
2023/01/09 01:03:54;;;;;;;15.00;6.23;;;;;;;-16.58;51.98;101717.72;4817997;29;20061;-81
2023/01/09 01:09:15;;;;;;;15.23;6.40;;;;;;;-16.74;52.11;101647.53;4828644;29;20047;-79
2023/01/09 01:11:52;;;;;;;17.67;6.57;;;;;;;-16.28;52.29;101709.91;4801390;29;20046;-82
2023/01/09 01:14:29;;;;;;;16.10;6.67;;;;;;;-16.74;51.98;101655.00;4793709;29;20047;-80
2023/01/09 01:17:02;;;;;;;25.60;8.30;;;;;;;-16.31;52.07;101722.84;4795713;29;20052;-79
2023/01/09 01:19:41;;;;;;;14.30;6.05;;;;;;;-16.39;52.90;101721.00;4810801;29;20043;-79
2023/01/09 01:22:30;;;;;;;12.33;6.10;;;;;;;-16.63;51.67;101679.75;4798542;29;20055;-81
2023/01/09 01:25:01;;;;;;;13.60;5.38;;;;;;;-16.54;51.89;101718.28;4795466;30;20050;-79
2023/01/09 01:27:30;;;;;;;15.23;6.23;;;;;;;-16.62;52.47;101731.38;4794502;29;20081;-79
2023/01/09 01:30:09;;;;;;;12.93;6.07;;;;;;;-17.17;52.53;101647.91;4796837;29;20074;-79
2023/01/09 01:32:40;;;;;;;11.60;5.67;;;;;;;-16.55;52.87;101718.09;4810860;29;20090;-81
2023/01/09 01:35:10;;;;;;;16.47;6.17;;;;;;;-16.40;52.67;101716.69;4813844;29;20045;-79
2023/01/09 01:37:42;;;;;;;12.43;5.40;;;;;;;-16.44;51.44;101715.44;4814244;29;20052;-80
2023/01/09 01:40:11;;;;;;;13.07;6.13;;;;;;;-16.52;51.96;101721.00;4828976;29;20031;-79
2023/01/09 01:42:48;;;;;;;20.70;7.00;;;;;;;-16.45;53.17;101721.09;4829012;29;20038;-80
2023/01/09 01:45:35;;;;;;;;;;;;;;;-16.28;52.23;101732.34;4816828;29;20038;-78
2023/01/09 01:48:27;;;;;;;10.40;5.90;;;;;;;-16.15;52.31;101728.22;4828103;29;19909;-82
2023/01/09 01:51:15;;;;;;;10.70;5.07;;;;;;;-16.30;51.53;101728.75;4828061;29;20035;-78
2023/01/09 01:53:52;;;;;;;15.45;5.95;;;;;;;-16.49;51.35;101726.38;4828695;29;20047;-79
2023/01/09 01:56:44;;;;;;;14.07;5.43;;;;;;;-16.58;52.31;101730.16;4824550;29;20046;-80
2023/01/09 01:59:21;;;;;;;17.17;5.97;;;;;;;-16.62;51.67;101733.88;4812777;29;20096;-79
2023/01/09 02:01:58;;;;;;;18.37;5.97;;;;;;;-16.99;51.51;101685.16;4827321;29;20064;-79
2023/01/09 02:04:31;;;;;;;18.93;6.63;;;;;;;-16.95;52.25;101688.94;4811978;29;20054;-80
2023/01/09 02:07:07;;;;;;;18.63;6.70;;;;;;;-16.42;53.19;101743.91;4810746;29;20047;-79
2023/01/09 02:09:43;;;;;;;14.17;6.33;;;;;;;-16.67;51.98;101695.91;4808707;30;20059;-79
2023/01/09 02:12:30;;;;;;;15.83;5.17;;;;;;;-16.64;51.31;101739.34;4780411;30;20035;-80
2023/01/09 02:15:17;;;;;;;14.83;6.67;;;;;;;-16.71;51.68;101743.56;4788287;29;20066;-79
2023/01/09 02:18:19;;;;;;;21.03;6.20;;;;;;;-16.86;52.39;101751.50;4794759;30;20069;-79
2023/01/09 02:21:11;;;;;;;18.52;5.65;;;;;;;-17.10;52.08;101731.78;4821378;29;20049;-80
2023/01/09 02:25:11;;;;;;;20.47;5.73;;;;;;;-16.82;52.09;101756.19;4798503;29;20072;-78
2023/01/09 02:37:39;;;;;;;13.77;4.97;;;;;;;-16.75;51.78;101750.41;4826282;29;20103;-79
2023/01/09 02:41:42;;;;;;;13.33;4.43;;;;;;;-16.85;52.14;101753.28;4811204;29;20043;-81
2023/01/09 02:46:10;;;;;;;;;;;;;;;;;;;;;
2023/01/09 02:49:17;;;;;;;10.47;5.80;;;;;;;-17.10;51.78;101697.81;4763751;29;20045;-79
2023/01/09 02:57:28;;;;;;;;;;;;;;;;;;;;;
2023/01/09 03:04:55;;;;;;;19.70;6.17;;;;;;;-16.81;53.09;101765.44;4894997;24;20062;-79
2023/01/09 03:07:39;;;;;;;17.27;5.73;;;;;;;-16.76;52.66;101769.44;4797839;29;20059;-78
2023/01/09 03:10:22;;;;;;;17.83;6.00;;;;;;;-17.21;52.55;101707.94;4827852;29;20046;-81
2023/01/09 03:12:57;;;;;;;16.93;6.60;;;;;;;-16.56;52.78;101768.66;4811003;29;20046;-78
2023/01/09 03:15:53;;;;;;;18.50;6.73;;;;;;;-16.58;52.62;101770.97;4830762;29;20041;-79
2023/01/09 03:18:28;;;;;;;20.57;6.50;;;;;;;-16.51;52.38;101766.06;4820158;29;20042;-78
2023/01/09 03:20:58;;;;;;;19.33;6.47;;;;;;;-16.81;52.77;101679.16;4815242;29;20051;-81
2023/01/09 03:23:57;;;;;;;17.57;6.87;;;;;;;-16.34;52.40;101774.84;4831137;29;20055;-81
2023/01/09 03:26:40;;;;;;;16.03;5.47;;;;;;;-16.37;51.37;101776.94;4831232;29;20035;-78
2023/01/09 03:29:09;;;;;;;14.93;5.50;;;;;;;-16.47;52.05;101761.47;4830256;29;20082;-81
2023/01/09 03:31:35;;;;;;;10.93;4.53;;;;;;;-16.90;51.65;101741.84;4828202;29;20035;-81
2023/01/09 03:34:06;;;;;;;17.73;7.83;;;;;;;-16.60;52.49;101786.41;4830730;29;20049;-81
2023/01/09 03:36:38;;;;;;;16.97;7.13;;;;;;;-16.57;52.78;101789.31;4816632;29;20110;-80
2023/01/09 03:39:08;;;;;;;16.73;7.07;;;;;;;-16.42;53.43;101785.41;4846504;29;20091;-80
2023/01/09 03:41:54;;;;;;;15.27;6.37;;;;;;;-16.41;52.04;101782.22;4817160;29;20031;-81
2023/01/09 03:44:33;;;;;;;12.20;5.20;;;;;;;-16.28;53.32;101787.22;4817351;29;20043;-80
2023/01/09 03:47:03;;;;;;;18.23;5.47;;;;;;;-16.18;52.63;101791.78;4815745;29;20073;-79
2023/01/09 03:50:05;;;;;;;7.73;4.33;;;;;;;-16.42;52.26;101796.28;4832130;29;20062;-80
2023/01/09 03:53:05;;;;;;;19.70;5.37;;;;;;;-16.34;52.81;101793.88;4830740;29;20035;-79
2023/01/09 03:55:32;;;;;;;11.70;5.17;;;;;;;-16.21;52.45;101797.25;4830051;29;20034;-80
2023/01/09 03:58:03;;;;;;;17.33;6.10;;;;;;;-16.29;51.34;101798.75;4814482;29;20064;-82
2023/01/09 04:00:51;;;;;;;13.40;6.10;;;;;;;-16.18;53.22;101806.75;4829491;29;20050;-80
2023/01/09 04:03:19;;;;;;;13.13;4.93;;;;;;;-16.31;52.75;101774.34;4831042;29;20039;-80
2023/01/09 04:05:50;;;;;;;16.97;5.00;;;;;;;-16.33;52.13;101789.13;4814157;29;20070;-80
2023/01/09 04:08:17;;;;;;;12.33;5.30;;;;;;;-16.44;53.24;101796.78;4807379;29;20042;-79
2023/01/09 04:10:45;;;;;;;13.37;4.97;;;;;;;-16.72;52.81;101769.16;4806067;29;20050;-81
2023/01/09 04:13:11;;;;;;;16.10;5.10;;;;;;;-16.99;52.58;101731.59;4807193;29;20122;-82
2023/01/09 04:15:37;;;;;;;11.77;4.67;;;;;;;-16.53;53.90;101779.91;4805688;29;20046;-81
2023/01/09 04:18:03;;;;;;;17.33;5.77;;;;;;;-16.45;53.07;101765.97;4805811;29;20053;-81
2023/01/09 04:20:31;;;;;;;10.80;4.10;;;;;;;-16.38;52.90;101795.97;4805978;29;20047;-81
2023/01/09 04:22:58;;;;;;;13.00;4.73;;;;;;;-17.06;52.23;101746.44;4805680;29;20043;-81
2023/01/09 04:25:25;;;;;;;15.87;6.00;;;;;;;-16.97;51.90;101795.88;4806528;29;20426;-84
2023/01/09 04:27:52;;;;;;;14.70;6.07;;;;;;;-17.29;52.90;101727.75;4807300;29;20047;-81
2023/01/09 04:30:18;;;;;;;17.37;6.77;;;;;;;-17.18;52.56;101765.63;4790197;29;20141;-81
2023/01/09 04:32:44;;;;;;;22.03;6.10;;;;;;;-17.34;52.62;101753.66;4806064;29;20513;-80
2023/01/09 04:35:10;;;;;;;14.33;5.87;;;;;;;-17.23;53.36;101761.63;4806847;29;20050;-80
2023/01/09 04:37:36;;;;;;;13.13;5.17;;;;;;;-16.79;52.55;101830.47;4805654;29;20093;-82
2023/01/09 04:40:08;;;;;;;17.10;5.70;;;;;;;-16.85;53.52;101809.00;4806172;29;20445;-81
2023/01/09 04:42:36;;;;;;;14.10;5.10;;;;;;;-16.84;52.56;101807.41;4805986;29;20065;-82
2023/01/09 04:45:03;;;;;;;16.83;5.77;;;;;;;-16.38;53.46;101830.88;4804625;29;20129;-82
2023/01/09 04:47:30;;;;;;;12.33;5.23;;;;;;;-16.43;53.37;101811.03;4804721;29;20054;-82
2023/01/09 04:49:56;;;;;;;22.57;6.63;;;;;;;-16.07;53.71;101836.47;4789981;29;20043;-82
2023/01/09 04:52:22;;;;;;;16.30;6.20;;;;;;;-16.06;53.58;101800.84;4775358;29;20053;-82
2023/01/09 04:54:49;;;;;;;13.37;4.80;;;;;;;-15.80;52.52;101839.13;4789647;29;20046;-81
2023/01/09 04:57:15;;;;;;;17.77;6.83;;;;;;;-16.32;52.83;101750.09;4789603;29;20043;-80
2023/01/09 04:59:41;;;;;;;19.83;6.97;;;;;;;-15.66;53.05;101837.47;4774721;29;20551;-80
2023/01/09 05:02:08;;;;;;;16.43;7.17;;;;;;;-15.66;52.10;101832.47;4774526;29;20167;-81
2023/01/09 05:04:33;;;;;;;19.33;6.47;;;;;;;-15.79;52.99;101840.91;4805971;29;20042;-80
2023/01/09 05:07:00;;;;;;;13.47;4.43;;;;;;;-16.35;51.64;101795.50;4800865;29;20053;-82
2023/01/09 05:09:26;;;;;;;18.57;6.37;;;;;;;-16.01;52.60;101836.38;4790291;29;20039;-81
2023/01/09 05:11:52;;;;;;;19.53;7.17;;;;;;;-15.72;53.58;101832.59;4805791;29;20406;-81
2023/01/09 05:14:18;;;;;;;21.93;6.63;;;;;;;-15.87;53.11;101826.56;4789674;29;20092;-83
2023/01/09 05:16:44;;;;;;;10.67;4.23;;;;;;;-15.85;51.82;101840.13;4805681;29;20043;-81
2023/01/09 05:19:10;;;;;;;17.77;6.07;;;;;;;-15.93;52.78;101839.16;4804032;29;20058;-81
2023/01/09 05:21:36;;;;;;;12.50;5.53;;;;;;;-15.88;52.75;101809.81;4804728;29;20042;-82
2023/01/09 05:24:02;;;;;;;13.10;4.97;;;;;;;-15.97;52.09;101793.63;4806610;29;20049;-81
2023/01/09 05:26:28;;;;;;;11.97;4.37;;;;;;;-16.03;51.84;101818.69;4806157;29;20099;-81
2023/01/09 05:28:55;;;;;;;14.63;5.00;;;;;;;-15.95;52.29;101833.06;4807794;29;20515;-81
2023/01/09 05:31:22;;;;;;;11.80;4.50;;;;;;;-15.78;53.98;101821.81;4809855;29;20046;-82
2023/01/09 05:33:48;;;;;;;14.87;5.93;;;;;;;-15.37;54.06;101847.78;4797517;29;20517;-80
2023/01/09 05:36:14;;;;;;;13.07;4.50;;;;;;;-15.39;51.61;101849.19;4804533;29;20103;-82
2023/01/09 05:38:41;;;;;;;9.03;4.13;;;;;;;-15.71;52.29;101839.41;4804589;29;20157;-83
2023/01/09 05:41:07;;;;;;;15.33;5.37;;;;;;;-15.92;53.24;101803.53;4805700;29;20070;-81
2023/01/09 05:43:33;;;;;;;14.50;5.40;;;;;;;-15.62;52.89;101805.59;4807552;29;20058;-80
2023/01/09 05:45:59;;;;;;;12.37;4.30;;;;;;;-15.22;52.77;101856.34;4805264;29;20047;-80
2023/01/09 05:48:26;;;;;;;12.17;3.90;;;;;;;-15.30;52.06;101867.81;4803845;29;20062;-80
2023/01/09 05:50:52;;;;;;;15.87;5.53;;;;;;;-15.34;51.84;101875.66;4805446;29;20111;-80
2023/01/09 05:53:19;;;;;;;15.20;5.63;;;;;;;-15.63;52.23;101835.38;4806015;29;20070;-81
2023/01/09 05:55:45;;;;;;;15.37;5.57;;;;;;;-15.66;52.94;101839.97;4805468;29;20047;-79
2023/01/09 05:58:11;;;;;;;15.53;6.47;;;;;;;-15.63;51.50;101870.31;4804451;29;20183;-80
2023/01/09 06:00:38;;;;;;;11.20;4.67;;;;;;;-16.04;52.17;101848.47;4804791;29;20042;-81
2023/01/09 06:03:07;;;;;;;12.83;4.87;;;;;;;-16.22;51.75;101836.28;4791426;29;20043;-81
2023/01/09 06:05:43;;;;;;;18.87;4.87;;;;;;;-16.29;52.73;101837.78;4805054;29;20069;-81
2023/01/09 06:08:21;;;;;;;15.67;6.30;;;;;;;-16.55;53.01;101797.88;4790337;29;20046;-80
2023/01/09 06:11:07;;;;;;;10.67;3.93;;;;;;;-16.67;52.73;101755.72;4806066;29;20039;-82
2023/01/09 06:13:55;;;;;;;;;;;;;;;;;;;;;
2023/01/09 06:16:37;;;;;;;16.95;7.93;;;;;;;-16.63;52.92;101786.91;4807135;29;20577;-80
2023/01/09 06:19:13;;;;;;;18.47;7.23;;;;;;;-16.56;52.75;101787.03;4808816;29;20137;-80
2023/01/09 06:22:00;;;;;;;15.87;6.57;;;;;;;-16.91;52.50;101712.66;4809028;29;20054;-81
2023/01/09 06:24:36;;;;;;;20.30;6.37;;;;;;;-16.97;53.12;101725.22;4805843;29;20049;-81
2023/01/09 06:27:05;;;;;;;19.50;6.20;;;;;;;-16.91;53.72;101702.69;4788983;29;20108;-80
2023/01/09 06:29:41;;;;;;;15.53;6.13;;;;;;;-16.24;51.70;101846.78;4789096;29;20058;-82
2023/01/09 06:32:19;;;;;;;9.70;5.03;;;;;;;-16.41;52.49;101819.63;4775497;29;20051;-79
2023/01/09 06:35:04;;;;;;;11.83;3.93;;;;;;;-16.42;52.61;101811.22;4790428;29;20479;-82
2023/01/09 06:37:38;;;;;;;15.47;5.13;;;;;;;-16.11;52.62;101896.66;4804030;29;20038;-80
2023/01/09 06:40:08;;;;;;;6.57;3.37;;;;;;;-16.10;52.55;101911.81;4804122;29;20043;-81
2023/01/09 06:42:47;;;;;;;14.60;5.70;;;;;;;-16.02;52.62;101914.44;4806164;29;20107;-81
2023/01/09 06:45:22;;;;;;;13.30;5.30;;;;;;;-15.97;52.74;101909.31;4804646;29;20057;-81
2023/01/09 06:47:49;;;;;;;16.97;4.40;;;;;;;-15.87;53.76;101905.50;4807116;29;20051;-81
2023/01/09 06:50:15;;;;;;;11.87;4.37;;;;;;;-15.96;53.60;101850.31;4793001;29;20052;-81
2023/01/09 06:52:41;;;;;;;15.90;5.13;;;;;;;-16.50;53.15;101752.03;4807154;29;20117;-82
2023/01/09 06:55:11;;;;;;;10.07;4.77;;;;;;;-16.14;52.33;101819.81;4793408;29;20077;-82
2023/01/09 06:57:39;;;;;;;14.97;5.37;;;;;;;-16.71;52.35;101673.78;4792872;29;20035;-82
2023/01/09 07:00:22;;;;;;;10.53;4.53;;;;;;;-16.85;52.94;101621.25;4798055;29;20046;-81
2023/01/09 07:02:51;;;;;;;13.23;4.03;;;;;;;-15.84;52.08;101786.09;4799679;29;20050;-81
2023/01/09 07:05:18;;;;;;;6.77;3.40;;;;;;;-15.46;51.42;101803.44;4817972;29;20078;-80
2023/01/09 07:07:50;;;;;;;8.17;3.97;;;;;;;-15.63;51.41;101806.31;4808442;29;20119;-81
2023/01/09 07:10:16;;;;;;;8.53;3.37;;;;;;;-15.72;50.74;101867.56;4809021;29;20046;-80
2023/01/09 07:12:43;;;;;;;9.63;3.70;;;;;;;-15.49;52.18;101919.53;4807299;29;20046;-81
2023/01/09 07:15:11;;;;;;;8.10;4.30;;;;;;;-16.19;52.37;101805.84;4807627;29;20049;-82
2023/01/09 07:17:37;;;;;;;13.33;5.23;;;;;;;-15.49;51.80;101955.38;4808302;29;20047;-80
2023/01/09 07:20:04;;;;;;;11.83;4.33;;;;;;;-15.84;52.32;101891.81;4807295;29;20827;-81
2023/01/09 07:22:31;;;;;;;11.13;3.63;;;;;;;-15.81;52.20;101877.25;4791691;29;20102;-81
2023/01/09 07:24:57;;;;;;;12.43;5.37;;;;;;;-15.34;52.56;101938.09;4806698;29;20067;-81
2023/01/09 07:27:23;;;;;;;11.23;5.03;;;;;;;-15.57;53.26;101840.25;4806430;29;20047;-79
2023/01/09 07:29:50;;;;;;;11.73;5.20;;;;;;;-15.32;51.28;101886.72;4808045;29;20051;-79
2023/01/09 07:32:16;;;;;;;14.23;4.40;;;;;;;-14.83;51.58;101957.03;4793137;29;20043;-80
2023/01/09 07:34:42;;;;;;;12.33;5.53;;;;;;;-15.05;51.55;101939.31;4798402;29;20046;-80
2023/01/09 07:37:08;;;;;;;17.47;6.10;;;;;;;-14.88;52.34;101955.56;4811467;29;20046;-80
2023/01/09 07:39:34;;;;;;;17.40;4.57;;;;;;;-14.99;50.37;101914.19;4812107;29;20058;-80
2023/01/09 07:42:00;;;;;;;16.83;5.80;;;;;;;-14.47;52.31;101968.94;4796172;29;20088;-80
2023/01/09 07:44:26;;;;;;;10.93;5.20;;;;;;;-14.85;51.86;101853.47;4812399;29;20047;-81
2023/01/09 07:46:52;;;;;;;15.93;5.87;;;;;;;-14.65;51.46;101898.41;4798266;29;20050;-82
2023/01/09 07:49:18;;;;;;;12.43;4.80;;;;;;;-14.47;49.97;101959.84;4796592;29;20555;-80
2023/01/09 07:51:47;;;;;;;22.33;5.50;;;;;;;-14.84;51.38;101915.25;4811463;29;20506;-80
2023/01/09 07:54:13;;;;;;;15.17;6.07;;;;;;;-14.88;50.64;101961.44;4806727;29;20153;-79
2023/01/09 07:56:40;;;;;;;14.40;4.93;;;;;;;-14.98;50.85;101948.50;4806343;29;20051;-80
2023/01/09 07:59:10;;;;;;;16.17;5.47;;;;;;;-15.18;51.06;101891.88;4792147;29;20051;-78
2023/01/09 08:01:39;;;;;;;12.90;4.10;;;;;;;-14.95;50.23;101950.47;4807683;29;20050;-79
2023/01/09 08:04:07;;;;;;;13.57;6.07;;;;;;;-14.74;51.49;101960.69;4791173;29;20133;-78
2023/01/09 08:06:37;;;;;;;16.07;5.03;;;;;;;-14.01;51.22;101968.78;4820785;29;20058;-79
2023/01/09 08:09:03;;;;;;;7.33;3.53;;;;;;;-13.68;49.76;101946.97;4806152;29;20111;-79
2023/01/09 08:11:35;;;;;;;14.27;4.80;;;;;;;-14.18;51.44;101807.44;4806970;29;20103;-80
2023/01/09 08:14:08;;;;;;;16.80;5.10;;;;;;;-12.98;49.95;101969.44;4807864;29;20038;-82
2023/01/09 08:16:36;;;;;;;15.47;6.10;;;;;;;-13.15;50.60;101950.75;4807358;29;20042;-79
2023/01/09 08:19:06;;;;;;;14.18;6.32;;;;;;;-14.34;50.67;101757.13;4792079;29;20058;-80
2023/01/09 08:21:31;;;;;;;13.23;5.00;;;;;;;-12.96;49.09;101926.25;4806352;29;20042;-82
2023/01/09 08:23:58;;;;;;;13.60;4.93;;;;;;;-12.55;49.50;101891.75;4807645;29;20059;-80
2023/01/09 08:26:24;;;;;;;12.07;5.30;;;;;;;-11.64;48.63;101936.41;4791835;29;20059;-79
2023/01/09 08:28:55;;;;;;;14.10;5.93;;;;;;;-10.95;49.37;101874.47;4808958;29;20046;-80
2023/01/09 08:31:21;;;;;;;16.00;6.03;;;;;;;-10.60;48.83;101819.56;4807504;29;20098;-81
2023/01/09 08:33:47;;;;;;;12.23;5.63;;;;;;;-9.95;48.38;101931.34;4793243;29;20489;-80
2023/01/09 08:36:13;;;;;;;18.93;6.73;;;;;;;-9.28;48.92;101914.00;4806787;29;20050;-81
2023/01/09 08:38:39;;;;;;;9.05;4.97;;;;;;;-8.47;45.95;101926.50;4808136;29;20042;-83
2023/01/09 08:49:21;;;;;;;18.77;6.28;;;;;;;-8.14;46.40;101928.88;4816567;29;20051;-80
2023/01/09 08:51:47;;;;;;;16.55;6.90;;;;;;;-7.63;47.37;101911.13;4807731;29;20083;-78
2023/01/09 08:54:13;;;;;;;14.68;6.55;;;;;;;-6.95;47.84;101894.88;4805533;29;20073;-80
2023/01/09 08:56:39;;;;;;;11.55;5.40;;;;;;;-6.60;42.73;101894.78;4775011;29;20102;-79
2023/01/09 08:59:05;;;;;;;17.58;7.60;;;;;;;-6.19;44.91;101895.97;4805659;29;20043;-82
2023/01/09 09:01:31;;;;;;;17.92;7.35;;;;;;;-5.71;44.38;101902.81;4806404;29;20042;-81
2023/01/09 09:03:57;;;;;;;16.15;7.75;;;;;;;-5.73;44.51;101934.75;4806086;29;20057;-81
2023/01/09 09:06:24;;;;;;;11.20;5.90;;;;;;;-5.65;42.28;101885.63;4805722;29;20057;-80
2023/01/09 09:08:50;;;;;;;13.18;5.95;;;;;;;-5.53;41.04;101924.75;4805179;29;20046;-81
2023/01/09 09:11:16;;;;;;;16.02;7.25;;;;;;;-5.49;43.48;101903.06;4806160;29;20046;-80
2023/01/09 09:13:42;;;;;;;13.57;6.20;;;;;;;-4.58;44.40;101921.22;4790936;29;20141;-82
2023/01/09 09:16:08;;;;;;;14.02;6.55;;;;;;;-4.57;43.27;101886.50;4808942;29;20262;-83
2023/01/09 09:18:34;;;;;;;18.80;6.63;;;;;;;-4.46;42.98;101839.13;4807988;29;20043;-81
2023/01/09 09:21:00;;;;;;;14.48;7.78;;;;;;;-3.79;42.31;101896.41;4807115;29;20126;-80
2023/01/09 09:23:28;;;;;;;14.60;6.18;;;;;;;-5.70;39.52;101689.84;4806927;29;20513;-84
2023/01/09 09:25:54;;;;;;;18.75;8.27;;;;;;;-4.10;42.92;101865.88;4816993;29;20049;-83
2023/01/09 09:28:21;;;;;;;13.38;6.93;;;;;;;-3.44;42.29;101900.06;4805425;29;20101;-80
2023/01/09 09:30:47;;;;;;;15.73;6.47;;;;;;;-3.45;40.70;101889.00;4814048;29;20110;-85
2023/01/09 09:33:14;;;;;;;16.58;7.78;;;;;;;-3.83;39.04;101909.63;4809844;29;20039;-82
2023/01/09 09:35:46;;;;;;;12.55;6.32;;;;;;;-5.51;38.26;101864.00;4793287;29;20540;-83
2023/01/09 09:38:12;;;;;;;12.48;6.82;;;;;;;-5.85;37.96;101915.16;4808746;29;20043;-86
2023/01/09 09:41:00;;;;;;;15.15;7.43;;;;;;;-5.48;39.80;101908.31;4809428;29;20043;-80
2023/01/09 09:47:07;;;;;;;13.95;7.22;;;;;;;-4.71;38.61;101882.78;4811838;29;20058;-81
2023/01/09 09:49:47;;;;;;;;;;;;;;;-4.13;39.20;101906.31;4795832;29;20055;-83
2023/01/09 09:53:02;;;;;;;12.70;7.32;;;;;;;-4.55;37.50;101854.50;4809392;29;19921;-81
2023/01/09 09:55:59;;;;;;;9.98;5.45;;;;;;;-5.22;35.80;101678.72;4778699;29;20050;-81
2023/01/09 09:58:38;;;;;;;13.23;6.38;;;;;;;-5.20;36.95;101738.13;4794658;29;20541;-83
2023/01/09 10:01:15;;;;;;;12.73;7.03;;;;;;;-4.93;38.03;101681.94;4813386;29;20054;-81
2023/01/09 10:03:59;;;;;;;14.63;7.82;;;;;;;-3.48;38.54;101799.66;4818364;29;20066;-80
2023/01/09 10:06:30;;;;;;;13.95;5.45;;;;;;;-3.74;35.50;101920.59;4813049;29;20062;-83
2023/01/09 10:09:36;;;;;;;16.20;7.35;;;;;;;-4.54;37.51;101900.38;4794825;29;20095;-82
2023/01/09 10:12:21;;;;;;;10.35;5.35;;;;;;;-5.09;36.07;101921.88;4808636;29;20054;-82
2023/01/09 10:14:48;;;;;;;10.65;5.32;;;;;;;-5.83;36.04;101892.44;4778124;29;20055;-82
2023/01/09 10:18:08;;;;;;;11.50;5.63;;;;;;;-6.91;37.36;101913.78;4802303;29;20046;-84
2023/01/09 10:20:53;;;;;;;12.20;5.80;;;;;;;-7.86;37.74;101907.22;4796337;29;20146;-84
2023/01/09 10:23:25;;;;;;;13.02;5.47;;;;;;;-8.18;37.08;101923.50;4798288;29;20084;-83
2023/01/09 10:26:01;;;;;;;13.13;6.07;;;;;;;-8.99;37.67;101918.69;4807258;29;20067;-83
2023/01/09 10:28:55;;;;;;;13.95;7.18;;;;;;;-9.94;37.49;101921.44;4794207;29;20043;-84
2023/01/09 10:32:03;;;;;;;16.63;6.37;;;;;;;-10.20;39.13;101927.06;4779154;29;20061;-83
2023/01/09 10:35:00;;;;;;;12.25;5.13;;;;;;;-10.54;38.56;101940.16;4789579;29;20592;-82
2023/01/09 10:37:52;;;;;;;12.07;4.83;;;;;;;-11.25;38.47;101931.59;4794688;29;20536;-81
2023/01/09 10:40:44;;;;;;;11.57;4.77;;;;;;;-12.29;39.02;101775.91;4793891;29;20521;-83
2023/01/09 10:43:27;;;;;;;9.90;4.63;;;;;;;-11.53;38.88;101938.50;4796238;29;20047;-83
2023/01/09 10:46:07;;;;;;;10.83;4.90;;;;;;;-12.25;40.39;101845.84;4812603;29;20058;-81
2023/01/09 10:49:09;;;;;;;8.73;3.90;;;;;;;-11.84;39.72;101945.06;4814802;29;20054;-83
2023/01/09 10:52:12;;;;;;;9.70;3.70;;;;;;;-13.88;39.28;101660.75;4810732;29;20529;-83
2023/01/09 10:54:53;;;;;;;10.13;3.90;;;;;;;-12.94;40.08;101843.72;4797793;29;20093;-85
2023/01/09 10:57:38;;;;;;;9.30;4.40;;;;;;;-12.07;40.55;101954.13;4794996;29;20046;-82
2023/01/09 11:00:06;;;;;;;17.93;4.90;;;;;;;-12.53;40.68;101866.81;4809343;29;20051;-80
2023/01/09 11:02:34;;;;;;;11.03;5.13;;;;;;;-12.47;40.16;101923.66;4812049;29;20092;-79
2023/01/09 11:05:00;;;;;;;8.17;3.50;;;;;;;-12.66;40.05;101910.56;4798513;29;20629;-82
2023/01/09 11:07:30;;;;;;;9.03;3.87;;;;;;;-12.82;41.45;101890.28;4814434;29;20050;-82
2023/01/09 11:10:06;;;;;;;7.77;3.60;;;;;;;-12.63;40.12;101931.00;4797480;29;20072;-81
2023/01/09 11:12:35;;;;;;;12.73;3.73;;;;;;;-12.69;40.82;101960.34;4797798;29;20086;-83
2023/01/09 11:15:28;;;;;;;8.23;3.67;;;;;;;-12.74;41.08;101969.84;4811612;29;20042;-81
2023/01/09 11:18:19;;;;;;;10.13;3.83;;;;;;;-13.74;40.67;101911.16;4818140;29;20074;-81
2023/01/09 11:20:46;;;;;;;9.53;3.80;;;;;;;-13.65;41.43;101912.28;4796771;29;20137;-82
2023/01/09 11:24:01;;;;;;;19.37;3.77;;;;;;;-13.64;41.19;101979.22;4802702;29;20066;-80
2023/01/09 11:26:36;;;;;;;7.47;3.13;;;;;;;-15.17;40.43;101783.75;4816139;29;20058;-82
2023/01/09 11:29:25;;;;;;;9.57;4.40;;;;;;;-14.54;42.33;101868.13;4797661;29;20062;-84
2023/01/09 11:31:56;;;;;;;11.53;4.73;;;;;;;-13.87;42.93;101983.00;4810858;29;20524;-83
2023/01/09 11:34:28;;;;;;;12.10;4.43;;;;;;;-14.33;43.02;101871.50;4795902;29;20083;-82
2023/01/09 11:37:12;;;;;;;13.00;5.03;;;;;;;-14.25;42.57;101885.84;4796685;29;20429;-83
2023/01/09 11:39:46;;;;;;;11.77;4.53;;;;;;;-14.26;42.73;101851.53;4794428;29;20119;-82
2023/01/09 11:43:07;;;;;;;8.60;3.43;;;;;;;-13.73;41.09;101999.72;4810207;29;20121;-85
2023/01/09 11:45:32;;;;;;;8.43;3.53;;;;;;;-14.16;43.33;101945.25;4810533;29;20046;-82
2023/01/09 11:47:58;;;;;;;10.50;3.67;;;;;;;-14.30;41.99;101949.44;4807761;29;20042;-83
2023/01/09 11:50:31;;;;;;;6.23;2.77;;;;;;;-14.70;41.67;101932.88;4812979;29;20058;-85
2023/01/09 11:53:17;;;;;;;8.97;3.80;;;;;;;-14.64;43.13;101991.81;4809092;29;20051;-82
2023/01/09 11:55:46;;;;;;;9.70;3.30;;;;;;;-15.20;42.89;101959.81;4815254;29;20053;-82
2023/01/09 11:58:20;;;;;;;4.73;2.23;;;;;;;-15.84;43.03;101874.34;4808317;29;20038;-85
2023/01/09 12:01:21;;;;;;;9.27;3.73;;;;;;;-14.88;44.25;101988.03;4807623;29;20584;-83
2023/01/09 12:04:30;;;;;;;8.48;4.00;;;;;;;-15.68;44.82;101869.75;4807105;29;20039;-81
2023/01/09 12:07:21;;;;;;;9.17;4.40;;;;;;;-15.27;43.92;101985.63;4792978;29;20061;-83
2023/01/09 12:10:20;;;;;;;15.77;6.07;;;;;;;-15.09;44.01;101976.19;4809493;29;20099;-80
2023/01/09 12:12:58;;;;;;;12.10;3.97;;;;;;;-15.23;45.50;101956.97;4794333;29;20043;-86
2023/01/09 12:15:40;;;;;;;6.80;2.70;;;;;;;-15.23;44.86;101970.34;4807432;29;20522;-84
2023/01/09 12:18:53;;;;;;;10.37;4.40;;;;;;;-15.26;46.17;101982.44;4809357;29;20042;-82
2023/01/09 12:21:52;;;;;;;10.10;3.50;;;;;;;-15.17;44.42;101980.22;4822125;29;20051;-82
2023/01/09 12:24:24;;;;;;;8.03;3.73;;;;;;;-15.34;46.71;101975.56;4795039;29;20053;-81
2023/01/09 12:27:17;;;;;;;7.78;3.08;;;;;;;-15.43;46.37;102001.84;4806187;29;20136;-80
2023/01/09 12:30:28;;;;;;;12.00;4.37;;;;;;;-15.59;45.38;101992.38;4810643;29;20046;-81
2023/01/09 12:33:16;;;;;;;6.87;4.03;;;;;;;-15.68;45.89;101946.22;4830254;29;20141;-81
2023/01/09 12:35:53;;;;;;;10.13;4.10;;;;;;;-16.02;46.68;101934.38;4825659;29;20050;-81
2023/01/09 12:39:06;;;;;;;12.67;3.30;;;;;;;-15.77;46.88;101988.34;4827751;29;20050;-82
2023/01/09 12:41:33;;;;;;;;;;;;;;;-15.61;47.16;101979.66;4827004;29;20035;-82